sensor_id;sensor_type;location;lat;lon;timestamp;temperature;humidity
56268;DHT22;42175;46.930;9.532;2022-10-19T00:03:34;23.20;54.80
56268;DHT22;42175;46.930;9.532;2022-10-19T00:06:10;23.20;54.80
56268;DHT22;42175;46.930;9.532;2022-10-19T00:08:36;23.20;54.80
56268;DHT22;42175;46.930;9.532;2022-10-19T00:11:02;23.20;54.80
56268;DHT22;42175;46.930;9.532;2022-10-19T00:13:28;23.20;54.80
56268;DHT22;42175;46.930;9.532;2022-10-19T00:15:53;23.20;54.80
56268;DHT22;42175;46.930;9.532;2022-10-19T00:18:19;23.20;54.80
56268;DHT22;42175;46.930;9.532;2022-10-19T00:20:45;23.20;54.80
56268;DHT22;42175;46.930;9.532;2022-10-19T00:23:11;23.20;54.80
56268;DHT22;42175;46.930;9.532;2022-10-19T00:25:36;23.20;54.80
56268;DHT22;42175;46.930;9.532;2022-10-19T00:28:03;23.20;54.80
56268;DHT22;42175;46.930;9.532;2022-10-19T00:30:29;23.20;54.80
56268;DHT22;42175;46.930;9.532;2022-10-19T00:32:55;23.20;54.80
56268;DHT22;42175;46.930;9.532;2022-10-19T00:35:21;23.20;54.80
56268;DHT22;42175;46.930;9.532;2022-10-19T00:37:46;23.20;54.80
56268;DHT22;42175;46.930;9.532;2022-10-19T00:40:13;23.20;54.80
56268;DHT22;42175;46.930;9.532;2022-10-19T00:42:38;23.20;54.80
56268;DHT22;42175;46.930;9.532;2022-10-19T00:45:10;23.20;54.80
56268;DHT22;42175;46.930;9.532;2022-10-19T00:47:37;23.20;54.80
56268;DHT22;42175;46.930;9.532;2022-10-19T00:50:04;23.20;54.70
56268;DHT22;42175;46.930;9.532;2022-10-19T00:52:30;23.20;54.80
56268;DHT22;42175;46.930;9.532;2022-10-19T00:54:57;23.10;54.70
56268;DHT22;42175;46.930;9.532;2022-10-19T00:57:27;23.10;54.70
56268;DHT22;42175;46.930;9.532;2022-10-19T00:59:53;23.20;54.70
56268;DHT22;42175;46.930;9.532;2022-10-19T01:02:20;23.20;54.70
56268;DHT22;42175;46.930;9.532;2022-10-19T01:04:48;23.10;54.70
56268;DHT22;42175;46.930;9.532;2022-10-19T01:07:16;23.20;54.70
56268;DHT22;42175;46.930;9.532;2022-10-19T01:09:43;23.10;54.70
56268;DHT22;42175;46.930;9.532;2022-10-19T01:33:29;23.10;54.60
56268;DHT22;42175;46.930;9.532;2022-10-19T01:38:53;23.10;54.60
56268;DHT22;42175;46.930;9.532;2022-10-19T01:46:43;23.10;54.60
56268;DHT22;42175;46.930;9.532;2022-10-19T01:51:50;23.10;54.60
56268;DHT22;42175;46.930;9.532;2022-10-19T01:54:19;23.10;54.60
56268;DHT22;42175;46.930;9.532;2022-10-19T01:56:47;23.10;54.60
56268;DHT22;42175;46.930;9.532;2022-10-19T01:59:15;23.10;54.60
56268;DHT22;42175;46.930;9.532;2022-10-19T02:01:44;23.10;54.50
56268;DHT22;42175;46.930;9.532;2022-10-19T02:04:14;23.10;55.10
56268;DHT22;42175;46.930;9.532;2022-10-19T02:06:40;23.10;54.50
56268;DHT22;42175;46.930;9.532;2022-10-19T02:09:06;23.10;54.50
56268;DHT22;42175;46.930;9.532;2022-10-19T02:11:34;23.10;54.70
56268;DHT22;42175;46.930;9.532;2022-10-19T02:14:04;23.10;54.60
56268;DHT22;42175;46.930;9.532;2022-10-19T02:16:36;23.10;54.60
56268;DHT22;42175;46.930;9.532;2022-10-19T02:19:04;23.10;54.60
56268;DHT22;42175;46.930;9.532;2022-10-19T02:21:33;23.10;54.50
56268;DHT22;42175;46.930;9.532;2022-10-19T02:23:59;23.10;54.50
56268;DHT22;42175;46.930;9.532;2022-10-19T02:26:25;23.10;54.50
56268;DHT22;42175;46.930;9.532;2022-10-19T02:28:54;23.10;54.50
56268;DHT22;42175;46.930;9.532;2022-10-19T02:31:20;23.10;54.50
56268;DHT22;42175;46.930;9.532;2022-10-19T02:33:47;23.10;54.50
56268;DHT22;42175;46.930;9.532;2022-10-19T02:36:13;23.10;54.50
56268;DHT22;42175;46.930;9.532;2022-10-19T02:38:40;23.00;54.50
56268;DHT22;42175;46.930;9.532;2022-10-19T02:41:31;23.00;54.50
56268;DHT22;42175;46.930;9.532;2022-10-19T02:44:14;23.00;54.50
56268;DHT22;42175;46.930;9.532;2022-10-19T02:47:00;23.00;54.50
56268;DHT22;42175;46.930;9.532;2022-10-19T02:49:27;23.00;54.50
56268;DHT22;42175;46.930;9.532;2022-10-19T02:52:05;23.00;54.50
56268;DHT22;42175;46.930;9.532;2022-10-19T02:54:31;23.00;54.50
56268;DHT22;42175;46.930;9.532;2022-10-19T02:56:56;23.00;54.40
56268;DHT22;42175;46.930;9.532;2022-10-19T02:59:23;23.00;54.70
56268;DHT22;42175;46.930;9.532;2022-10-19T03:01:49;23.00;54.40
56268;DHT22;42175;46.930;9.532;2022-10-19T03:04:15;23.00;54.40
56268;DHT22;42175;46.930;9.532;2022-10-19T03:06:41;23.00;54.40
56268;DHT22;42175;46.930;9.532;2022-10-19T03:09:07;23.00;54.40
56268;DHT22;42175;46.930;9.532;2022-10-19T03:11:33;23.00;54.50
56268;DHT22;42175;46.930;9.532;2022-10-19T03:13:59;23.00;54.50
56268;DHT22;42175;46.930;9.532;2022-10-19T03:16:24;23.00;54.40
56268;DHT22;42175;46.930;9.532;2022-10-19T03:18:50;23.00;54.40
56268;DHT22;42175;46.930;9.532;2022-10-19T03:21:17;23.00;54.40
56268;DHT22;42175;46.930;9.532;2022-10-19T03:23:43;23.00;54.40
56268;DHT22;42175;46.930;9.532;2022-10-19T03:26:12;23.00;54.40
56268;DHT22;42175;46.930;9.532;2022-10-19T03:28:39;23.00;54.40
56268;DHT22;42175;46.930;9.532;2022-10-19T03:31:05;23.00;54.40
56268;DHT22;42175;46.930;9.532;2022-10-19T03:33:31;23.00;54.40
56268;DHT22;42175;46.930;9.532;2022-10-19T03:36:16;23.00;54.40
56268;DHT22;42175;46.930;9.532;2022-10-19T03:38:43;23.00;54.40
56268;DHT22;42175;46.930;9.532;2022-10-19T03:41:10;23.00;54.40
56268;DHT22;42175;46.930;9.532;2022-10-19T03:43:36;23.00;54.30
56268;DHT22;42175;46.930;9.532;2022-10-19T03:46:02;23.00;54.40
56268;DHT22;42175;46.930;9.532;2022-10-19T03:48:28;23.00;54.30
56268;DHT22;42175;46.930;9.532;2022-10-19T03:51:02;23.00;54.40
56268;DHT22;42175;46.930;9.532;2022-10-19T03:53:28;23.00;55.00
56268;DHT22;42175;46.930;9.532;2022-10-19T03:56:04;23.00;54.40
56268;DHT22;42175;46.930;9.532;2022-10-19T03:58:32;23.00;54.30
56268;DHT22;42175;46.930;9.532;2022-10-19T04:00:58;23.00;54.30
56268;DHT22;42175;46.930;9.532;2022-10-19T04:03:24;23.00;54.30
56268;DHT22;42175;46.930;9.532;2022-10-19T04:05:50;23.00;54.40
56268;DHT22;42175;46.930;9.532;2022-10-19T04:08:16;23.00;54.30
56268;DHT22;42175;46.930;9.532;2022-10-19T04:10:43;23.00;54.30
56268;DHT22;42175;46.930;9.532;2022-10-19T04:13:08;23.00;54.30
56268;DHT22;42175;46.930;9.532;2022-10-19T04:15:35;23.00;54.30
56268;DHT22;42175;46.930;9.532;2022-10-19T04:18:01;23.00;54.30
56268;DHT22;42175;46.930;9.532;2022-10-19T04:20:27;23.00;54.30
56268;DHT22;42175;46.930;9.532;2022-10-19T04:22:53;23.00;54.20
56268;DHT22;42175;46.930;9.532;2022-10-19T04:25:19;23.00;54.20
56268;DHT22;42175;46.930;9.532;2022-10-19T04:27:44;23.00;54.20
56268;DHT22;42175;46.930;9.532;2022-10-19T04:30:10;23.00;54.20
56268;DHT22;42175;46.930;9.532;2022-10-19T04:32:36;23.00;54.20
56268;DHT22;42175;46.930;9.532;2022-10-19T04:35:02;23.00;54.20
56268;DHT22;42175;46.930;9.532;2022-10-19T04:37:28;23.00;54.20
56268;DHT22;42175;46.930;9.532;2022-10-19T04:39:54;23.00;54.10
56268;DHT22;42175;46.930;9.532;2022-10-19T04:42:19;23.00;54.10
56268;DHT22;42175;46.930;9.532;2022-10-19T04:44:45;23.00;54.10
56268;DHT22;42175;46.930;9.532;2022-10-19T04:47:11;23.00;54.10
56268;DHT22;42175;46.930;9.532;2022-10-19T04:49:37;23.00;54.10
56268;DHT22;42175;46.930;9.532;2022-10-19T04:52:02;23.00;54.10
56268;DHT22;42175;46.930;9.532;2022-10-19T04:54:28;23.00;54.00
56268;DHT22;42175;46.930;9.532;2022-10-19T04:56:54;23.00;54.00
56268;DHT22;42175;46.930;9.532;2022-10-19T04:59:20;23.00;54.00
56268;DHT22;42175;46.930;9.532;2022-10-19T05:01:45;23.00;54.00
56268;DHT22;42175;46.930;9.532;2022-10-19T05:04:11;23.00;54.00
56268;DHT22;42175;46.930;9.532;2022-10-19T05:06:37;23.00;53.90
56268;DHT22;42175;46.930;9.532;2022-10-19T05:09:03;23.00;53.90
56268;DHT22;42175;46.930;9.532;2022-10-19T05:11:28;23.00;53.90
56268;DHT22;42175;46.930;9.532;2022-10-19T05:13:57;23.00;53.90
56268;DHT22;42175;46.930;9.532;2022-10-19T05:16:23;23.00;53.90
56268;DHT22;42175;46.930;9.532;2022-10-19T05:18:51;23.00;53.90
56268;DHT22;42175;46.930;9.532;2022-10-19T05:21:17;23.00;53.90
56268;DHT22;42175;46.930;9.532;2022-10-19T05:23:44;23.00;54.00
56268;DHT22;42175;46.930;9.532;2022-10-19T05:26:12;23.00;54.00
56268;DHT22;42175;46.930;9.532;2022-10-19T05:28:40;23.00;54.00
56268;DHT22;42175;46.930;9.532;2022-10-19T05:31:12;23.00;54.10
56268;DHT22;42175;46.930;9.532;2022-10-19T05:33:39;23.00;54.20
56268;DHT22;42175;46.930;9.532;2022-10-19T05:36:27;23.00;54.20
56268;DHT22;42175;46.930;9.532;2022-10-19T05:38:55;23.00;54.40
56268;DHT22;42175;46.930;9.532;2022-10-19T05:41:24;23.00;54.30
56268;DHT22;42175;46.930;9.532;2022-10-19T05:43:55;23.00;54.40
56268;DHT22;42175;46.930;9.532;2022-10-19T05:46:22;23.00;54.50
56268;DHT22;42175;46.930;9.532;2022-10-19T05:48:48;23.00;54.60
56268;DHT22;42175;46.930;9.532;2022-10-19T05:51:17;23.00;54.70
56268;DHT22;42175;46.930;9.532;2022-10-19T05:53:44;23.00;54.80
56268;DHT22;42175;46.930;9.532;2022-10-19T05:56:16;23.00;54.60
56268;DHT22;42175;46.930;9.532;2022-10-19T05:58:42;23.10;54.70
56268;DHT22;42175;46.930;9.532;2022-10-19T06:01:08;23.10;54.70
56268;DHT22;42175;46.930;9.532;2022-10-19T06:03:34;23.10;54.70
56268;DHT22;42175;46.930;9.532;2022-10-19T06:06:05;23.10;55.00
56268;DHT22;42175;46.930;9.532;2022-10-19T06:08:32;23.10;55.10
56268;DHT22;42175;46.930;9.532;2022-10-19T06:11:11;23.10;55.10
56268;DHT22;42175;46.930;9.532;2022-10-19T06:13:38;23.10;55.30
56268;DHT22;42175;46.930;9.532;2022-10-19T06:16:05;23.10;55.40
56268;DHT22;42175;46.930;9.532;2022-10-19T06:18:32;23.10;55.50
56268;DHT22;42175;46.930;9.532;2022-10-19T06:21:05;23.10;55.40
56268;DHT22;42175;46.930;9.532;2022-10-19T06:23:32;23.10;55.50
56268;DHT22;42175;46.930;9.532;2022-10-19T06:26:00;23.10;55.50
56268;DHT22;42175;46.930;9.532;2022-10-19T06:28:26;23.10;55.60
56268;DHT22;42175;46.930;9.532;2022-10-19T06:30:52;23.10;55.70
56268;DHT22;42175;46.930;9.532;2022-10-19T06:33:17;23.10;55.80
56268;DHT22;42175;46.930;9.532;2022-10-19T06:35:43;23.10;55.70
56268;DHT22;42175;46.930;9.532;2022-10-19T06:38:09;23.10;55.90
56268;DHT22;42175;46.930;9.532;2022-10-19T06:40:35;23.00;56.00
56268;DHT22;42175;46.930;9.532;2022-10-19T06:43:01;23.10;56.00
56268;DHT22;42175;46.930;9.532;2022-10-19T06:45:26;23.00;55.90
56268;DHT22;42175;46.930;9.532;2022-10-19T06:47:52;23.10;55.70
56268;DHT22;42175;46.930;9.532;2022-10-19T06:50:18;23.10;55.80
56268;DHT22;42175;46.930;9.532;2022-10-19T06:52:45;23.00;55.70
56268;DHT22;42175;46.930;9.532;2022-10-19T06:55:11;23.00;56.30
56268;DHT22;42175;46.930;9.532;2022-10-19T06:57:37;23.10;55.70
56268;DHT22;42175;46.930;9.532;2022-10-19T07:00:05;23.00;55.60
56268;DHT22;42175;46.930;9.532;2022-10-19T07:02:31;23.00;55.60
56268;DHT22;42175;46.930;9.532;2022-10-19T07:04:57;23.00;55.70
56268;DHT22;42175;46.930;9.532;2022-10-19T07:07:24;23.10;55.70
56268;DHT22;42175;46.930;9.532;2022-10-19T07:09:50;23.10;55.50
56268;DHT22;42175;46.930;9.532;2022-10-19T07:12:16;23.10;55.40
56268;DHT22;42175;46.930;9.532;2022-10-19T07:14:42;23.10;55.30
56268;DHT22;42175;46.930;9.532;2022-10-19T07:17:09;23.10;55.20
56268;DHT22;42175;46.930;9.532;2022-10-19T07:19:36;23.20;55.20
56268;DHT22;42175;46.930;9.532;2022-10-19T07:22:02;23.20;55.10
56268;DHT22;42175;46.930;9.532;2022-10-19T07:24:28;23.20;55.00
56268;DHT22;42175;46.930;9.532;2022-10-19T07:26:54;23.20;55.00
56268;DHT22;42175;46.930;9.532;2022-10-19T07:29:20;23.20;54.90
56268;DHT22;42175;46.930;9.532;2022-10-19T07:31:46;23.20;54.90
56268;DHT22;42175;46.930;9.532;2022-10-19T07:34:13;23.30;54.90
56268;DHT22;42175;46.930;9.532;2022-10-19T07:36:39;23.30;54.80
56268;DHT22;42175;46.930;9.532;2022-10-19T07:39:10;23.20;54.80
56268;DHT22;42175;46.930;9.532;2022-10-19T07:41:37;23.20;54.80
56268;DHT22;42175;46.930;9.532;2022-10-19T07:44:03;23.30;54.80
56268;DHT22;42175;46.930;9.532;2022-10-19T07:46:31;23.30;54.80
56268;DHT22;42175;46.930;9.532;2022-10-19T07:48:59;23.30;54.80
56268;DHT22;42175;46.930;9.532;2022-10-19T07:51:25;23.30;54.70
56268;DHT22;42175;46.930;9.532;2022-10-19T07:53:52;23.30;54.70
56268;DHT22;42175;46.930;9.532;2022-10-19T07:56:21;23.30;54.70
56268;DHT22;42175;46.930;9.532;2022-10-19T07:58:49;23.30;54.70
56268;DHT22;42175;46.930;9.532;2022-10-19T08:01:19;23.30;54.80
56268;DHT22;42175;46.930;9.532;2022-10-19T08:03:46;23.30;54.80
56268;DHT22;42175;46.930;9.532;2022-10-19T08:06:15;23.40;55.00
56268;DHT22;42175;46.930;9.532;2022-10-19T08:08:42;23.40;54.90
56268;DHT22;42175;46.930;9.532;2022-10-19T08:11:09;23.40;55.00
56268;DHT22;42175;46.930;9.532;2022-10-19T08:13:36;23.40;55.00
56268;DHT22;42175;46.930;9.532;2022-10-19T08:16:03;23.50;55.00
56268;DHT22;42175;46.930;9.532;2022-10-19T08:18:29;23.50;54.90
56268;DHT22;42175;46.930;9.532;2022-10-19T08:20:55;23.50;54.90
56268;DHT22;42175;46.930;9.532;2022-10-19T08:23:21;23.50;54.90
56268;DHT22;42175;46.930;9.532;2022-10-19T08:25:48;23.50;54.90
56268;DHT22;42175;46.930;9.532;2022-10-19T08:28:14;23.50;54.90
56268;DHT22;42175;46.930;9.532;2022-10-19T08:30:40;23.50;55.70
56268;DHT22;42175;46.930;9.532;2022-10-19T08:33:05;23.50;54.90
56268;DHT22;42175;46.930;9.532;2022-10-19T08:35:35;23.60;54.90
56268;DHT22;42175;46.930;9.532;2022-10-19T08:38:01;23.60;54.90
56268;DHT22;42175;46.930;9.532;2022-10-19T08:40:29;23.60;54.90
56268;DHT22;42175;46.930;9.532;2022-10-19T08:45:42;23.60;54.90
56268;DHT22;42175;46.930;9.532;2022-10-19T08:48:25;23.60;54.90
56268;DHT22;42175;46.930;9.532;2022-10-19T08:50:52;23.60;54.90
56268;DHT22;42175;46.930;9.532;2022-10-19T09:09:47;23.70;55.00
56268;DHT22;42175;46.930;9.532;2022-10-19T09:12:25;23.70;55.00
56268;DHT22;42175;46.930;9.532;2022-10-19T09:14:57;23.70;55.20
56268;DHT22;42175;46.930;9.532;2022-10-19T09:17:23;23.80;55.20
56268;DHT22;42175;46.930;9.532;2022-10-19T09:19:50;23.80;55.00
56268;DHT22;42175;46.930;9.532;2022-10-19T09:22:20;23.80;55.10
56268;DHT22;42175;46.930;9.532;2022-10-19T09:25:32;23.80;55.10
56268;DHT22;42175;46.930;9.532;2022-10-19T09:27:41;23.80;55.20
56268;DHT22;42175;46.930;9.532;2022-10-19T09:30:19;23.80;55.10
56268;DHT22;42175;46.930;9.532;2022-10-19T09:32:47;23.90;55.00
56268;DHT22;42175;46.930;9.532;2022-10-19T09:35:31;23.80;55.10
56268;DHT22;42175;46.930;9.532;2022-10-19T09:37:58;23.90;55.20
56268;DHT22;42175;46.930;9.532;2022-10-19T09:40:28;23.90;55.20
56268;DHT22;42175;46.930;9.532;2022-10-19T09:42:55;23.90;55.20
56268;DHT22;42175;46.930;9.532;2022-10-19T09:45:31;23.80;55.20
56268;DHT22;42175;46.930;9.532;2022-10-19T09:48:00;23.90;55.20
56268;DHT22;42175;46.930;9.532;2022-10-19T09:50:29;23.90;55.10
56268;DHT22;42175;46.930;9.532;2022-10-19T09:53:02;23.90;55.10
56268;DHT22;42175;46.930;9.532;2022-10-19T09:55:38;23.90;55.20
56268;DHT22;42175;46.930;9.532;2022-10-19T09:58:16;24.00;55.30
56268;DHT22;42175;46.930;9.532;2022-10-19T10:00:48;24.00;55.10
56268;DHT22;42175;46.930;9.532;2022-10-19T10:03:31;23.90;55.10
56268;DHT22;42175;46.930;9.532;2022-10-19T10:06:07;24.00;55.10
56268;DHT22;42175;46.930;9.532;2022-10-19T10:08:38;24.00;55.10
56268;DHT22;42175;46.930;9.532;2022-10-19T10:13:47;24.00;55.10
56268;DHT22;42175;46.930;9.532;2022-10-19T10:16:15;24.00;55.20
56268;DHT22;42175;46.930;9.532;2022-10-19T10:19:05;24.00;55.00
56268;DHT22;42175;46.930;9.532;2022-10-19T10:21:49;24.00;55.10
56268;DHT22;42175;46.930;9.532;2022-10-19T10:24:19;24.00;55.30
56268;DHT22;42175;46.930;9.532;2022-10-19T10:26:52;23.90;55.20
56268;DHT22;42175;46.930;9.532;2022-10-19T10:29:27;24.00;55.30
56268;DHT22;42175;46.930;9.532;2022-10-19T10:32:06;23.90;55.20
56268;DHT22;42175;46.930;9.532;2022-10-19T10:34:40;24.00;55.30
56268;DHT22;42175;46.930;9.532;2022-10-19T10:37:22;23.90;55.20
56268;DHT22;42175;46.930;9.532;2022-10-19T10:39:53;23.90;55.30
56268;DHT22;42175;46.930;9.532;2022-10-19T10:42:35;23.90;55.20
56268;DHT22;42175;46.930;9.532;2022-10-19T10:45:03;23.90;55.20
56268;DHT22;42175;46.930;9.532;2022-10-19T10:47:29;23.90;55.30
56268;DHT22;42175;46.930;9.532;2022-10-19T10:49:59;23.90;55.40
56268;DHT22;42175;46.930;9.532;2022-10-19T10:52:28;23.90;55.50
56268;DHT22;42175;46.930;9.532;2022-10-19T10:55:22;23.90;55.60
56268;DHT22;42175;46.930;9.532;2022-10-19T10:57:53;23.90;55.60
56268;DHT22;42175;46.930;9.532;2022-10-19T11:00:22;23.90;55.70
56268;DHT22;42175;46.930;9.532;2022-10-19T11:05:26;23.90;55.80
56268;DHT22;42175;46.930;9.532;2022-10-19T11:16:37;23.90;55.80
56268;DHT22;42175;46.930;9.532;2022-10-19T11:19:27;23.90;55.80
56268;DHT22;42175;46.930;9.532;2022-10-19T11:32:25;23.90;55.90
56268;DHT22;42175;46.930;9.532;2022-10-19T11:51:19;23.90;55.80
56268;DHT22;42175;46.930;9.532;2022-10-19T11:57:29;23.90;55.80
56268;DHT22;42175;46.930;9.532;2022-10-19T12:00:09;23.90;55.70
56268;DHT22;42175;46.930;9.532;2022-10-19T12:13:48;23.90;55.70
56268;DHT22;42175;46.930;9.532;2022-10-19T12:16:16;23.90;55.70
56268;DHT22;42175;46.930;9.532;2022-10-19T12:18:49;23.90;55.70
56268;DHT22;42175;46.930;9.532;2022-10-19T12:21:21;23.90;55.70
56268;DHT22;42175;46.930;9.532;2022-10-19T12:23:49;23.90;55.70
56268;DHT22;42175;46.930;9.532;2022-10-19T12:26:17;23.80;55.60
56268;DHT22;42175;46.930;9.532;2022-10-19T12:28:54;23.90;55.70
56268;DHT22;42175;46.930;9.532;2022-10-19T12:31:22;23.80;55.60
56268;DHT22;42175;46.930;9.532;2022-10-19T12:39:23;23.80;55.60
56268;DHT22;42175;46.930;9.532;2022-10-19T12:44:50;23.90;55.70
56268;DHT22;42175;46.930;9.532;2022-10-19T12:47:23;23.80;55.80
56268;DHT22;42175;46.930;9.532;2022-10-19T12:49:53;23.80;55.70
56268;DHT22;42175;46.930;9.532;2022-10-19T12:55:32;23.90;55.80
56268;DHT22;42175;46.930;9.532;2022-10-19T12:58:13;23.90;55.90
56268;DHT22;42175;46.930;9.532;2022-10-19T13:01:03;23.80;55.90
56268;DHT22;42175;46.930;9.532;2022-10-19T13:03:36;23.80;55.90
56268;DHT22;42175;46.930;9.532;2022-10-19T13:11:18;23.90;55.90
56268;DHT22;42175;46.930;9.532;2022-10-19T13:16:54;23.80;55.90
56268;DHT22;42175;46.930;9.532;2022-10-19T13:19:21;23.80;55.80
56268;DHT22;42175;46.930;9.532;2022-10-19T13:29:47;23.80;55.90
56268;DHT22;42175;46.930;9.532;2022-10-19T13:40:37;23.80;55.80
56268;DHT22;42175;46.930;9.532;2022-10-19T13:43:03;23.80;55.90
56268;DHT22;42175;46.930;9.532;2022-10-19T13:45:29;23.80;55.80
56268;DHT22;42175;46.930;9.532;2022-10-19T13:48:04;23.80;55.90
56268;DHT22;42175;46.930;9.532;2022-10-19T13:51:09;23.80;55.80
56268;DHT22;42175;46.930;9.532;2022-10-19T13:53:47;23.80;55.80
56268;DHT22;42175;46.930;9.532;2022-10-19T14:02:16;23.80;55.70
56268;DHT22;42175;46.930;9.532;2022-10-19T14:04:56;23.80;55.80
56268;DHT22;42175;46.930;9.532;2022-10-19T14:07:34;23.80;55.80
56268;DHT22;42175;46.930;9.532;2022-10-19T14:10:11;23.80;55.80
56268;DHT22;42175;46.930;9.532;2022-10-19T14:12:42;23.70;55.70
56268;DHT22;42175;46.930;9.532;2022-10-19T14:15:23;23.80;55.80
56268;DHT22;42175;46.930;9.532;2022-10-19T14:17:52;23.80;55.70
56268;DHT22;42175;46.930;9.532;2022-10-19T14:20:30;23.80;55.80
56268;DHT22;42175;46.930;9.532;2022-10-19T14:22:57;23.80;55.80
56268;DHT22;42175;46.930;9.532;2022-10-19T14:25:26;23.70;55.70
56268;DHT22;42175;46.930;9.532;2022-10-19T14:28:05;23.80;55.80
56268;DHT22;42175;46.930;9.532;2022-10-19T14:30:35;23.80;55.80
56268;DHT22;42175;46.930;9.532;2022-10-19T14:33:06;23.70;55.70
56268;DHT22;42175;46.930;9.532;2022-10-19T14:35:36;23.70;55.70
56268;DHT22;42175;46.930;9.532;2022-10-19T14:38:07;23.80;55.70
56268;DHT22;42175;46.930;9.532;2022-10-19T14:40:40;23.70;55.70
56268;DHT22;42175;46.930;9.532;2022-10-19T14:43:24;23.70;55.70
56268;DHT22;42175;46.930;9.532;2022-10-19T14:48:34;23.70;55.60
56268;DHT22;42175;46.930;9.532;2022-10-19T14:51:03;23.70;55.60
56268;DHT22;42175;46.930;9.532;2022-10-19T14:56:35;23.70;55.60
56268;DHT22;42175;46.930;9.532;2022-10-19T14:59:11;23.70;55.60
56268;DHT22;42175;46.930;9.532;2022-10-19T15:01:39;23.70;55.60
56268;DHT22;42175;46.930;9.532;2022-10-19T15:04:05;23.70;55.60
56268;DHT22;42175;46.930;9.532;2022-10-19T15:06:32;23.70;55.60
56268;DHT22;42175;46.930;9.532;2022-10-19T15:09:05;23.70;55.60
56268;DHT22;42175;46.930;9.532;2022-10-19T15:11:37;23.70;55.60
56268;DHT22;42175;46.930;9.532;2022-10-19T15:14:15;23.70;55.60
56268;DHT22;42175;46.930;9.532;2022-10-19T15:19:31;23.70;55.60
56268;DHT22;42175;46.930;9.532;2022-10-19T15:24:42;23.70;55.60
56268;DHT22;42175;46.930;9.532;2022-10-19T15:27:27;23.70;55.60
56268;DHT22;42175;46.930;9.532;2022-10-19T15:32:29;23.70;55.60
56268;DHT22;42175;46.930;9.532;2022-10-19T15:34:57;23.70;55.50
56268;DHT22;42175;46.930;9.532;2022-10-19T15:37:23;23.70;55.60
56268;DHT22;42175;46.930;9.532;2022-10-19T15:39:50;23.70;56.20
56268;DHT22;42175;46.930;9.532;2022-10-19T15:42:39;23.70;55.50
56268;DHT22;42175;46.930;9.532;2022-10-19T15:50:55;23.70;55.50
56268;DHT22;42175;46.930;9.532;2022-10-19T15:53:21;23.70;55.50
56268;DHT22;42175;46.930;9.532;2022-10-19T15:55:48;23.70;55.50
56268;DHT22;42175;46.930;9.532;2022-10-19T15:58:14;23.70;55.50
56268;DHT22;42175;46.930;9.532;2022-10-19T16:00:40;23.70;55.50
56268;DHT22;42175;46.930;9.532;2022-10-19T16:03:06;23.70;55.50
56268;DHT22;42175;46.930;9.532;2022-10-19T16:05:36;23.60;55.50
56268;DHT22;42175;46.930;9.532;2022-10-19T16:08:02;23.60;55.50
56268;DHT22;42175;46.930;9.532;2022-10-19T16:10:28;23.60;55.50
56268;DHT22;42175;46.930;9.532;2022-10-19T16:12:54;23.60;55.50
56268;DHT22;42175;46.930;9.532;2022-10-19T16:15:22;23.60;55.50
56268;DHT22;42175;46.930;9.532;2022-10-19T16:17:51;23.70;55.50
56268;DHT22;42175;46.930;9.532;2022-10-19T16:20:17;23.60;55.50
56268;DHT22;42175;46.930;9.532;2022-10-19T16:22:45;23.60;55.60
56268;DHT22;42175;46.930;9.532;2022-10-19T16:25:11;23.60;55.50
56268;DHT22;42175;46.930;9.532;2022-10-19T16:27:37;23.60;55.60
56268;DHT22;42175;46.930;9.532;2022-10-19T16:30:04;23.70;55.70
56268;DHT22;42175;46.930;9.532;2022-10-19T16:32:30;23.60;55.60
56268;DHT22;42175;46.930;9.532;2022-10-19T16:34:56;23.60;55.60
56268;DHT22;42175;46.930;9.532;2022-10-19T16:37:22;23.70;55.70
56268;DHT22;42175;46.930;9.532;2022-10-19T16:39:47;23.60;55.70
56268;DHT22;42175;46.930;9.532;2022-10-19T16:42:13;23.60;55.70
56268;DHT22;42175;46.930;9.532;2022-10-19T16:44:39;23.60;55.70
56268;DHT22;42175;46.930;9.532;2022-10-19T16:47:05;23.60;55.70
56268;DHT22;42175;46.930;9.532;2022-10-19T16:49:31;23.60;55.70
56268;DHT22;42175;46.930;9.532;2022-10-19T16:51:57;23.60;55.70
56268;DHT22;42175;46.930;9.532;2022-10-19T16:54:23;23.60;55.70
56268;DHT22;42175;46.930;9.532;2022-10-19T16:56:51;23.60;55.70
56268;DHT22;42175;46.930;9.532;2022-10-19T16:59:17;23.60;55.70
56268;DHT22;42175;46.930;9.532;2022-10-19T17:01:44;23.60;55.60
56268;DHT22;42175;46.930;9.532;2022-10-19T17:04:13;23.60;55.60
56268;DHT22;42175;46.930;9.532;2022-10-19T17:06:40;23.70;55.60
56268;DHT22;42175;46.930;9.532;2022-10-19T17:09:06;23.60;55.60
56268;DHT22;42175;46.930;9.532;2022-10-19T17:11:34;23.60;56.10
56268;DHT22;42175;46.930;9.532;2022-10-19T17:14:04;23.70;55.70
56268;DHT22;42175;46.930;9.532;2022-10-19T17:16:32;23.60;55.80
56268;DHT22;42175;46.930;9.532;2022-10-19T17:18:59;23.60;56.00
56268;DHT22;42175;46.930;9.532;2022-10-19T17:21:31;23.60;56.20
56268;DHT22;42175;46.930;9.532;2022-10-19T17:24:00;23.60;56.10
56268;DHT22;42175;46.930;9.532;2022-10-19T17:26:30;23.60;56.40
56268;DHT22;42175;46.930;9.532;2022-10-19T17:28:57;23.60;56.20
56268;DHT22;42175;46.930;9.532;2022-10-19T17:31:23;23.70;56.30
56268;DHT22;42175;46.930;9.532;2022-10-19T17:33:50;23.70;56.20
56268;DHT22;42175;46.930;9.532;2022-10-19T17:36:21;23.70;56.30
56268;DHT22;42175;46.930;9.532;2022-10-19T17:38:54;23.60;56.40
56268;DHT22;42175;46.930;9.532;2022-10-19T17:41:20;23.60;56.30
56268;DHT22;42175;46.930;9.532;2022-10-19T17:43:47;23.60;56.80
56268;DHT22;42175;46.930;9.532;2022-10-19T17:46:17;23.60;56.50
56268;DHT22;42175;46.930;9.532;2022-10-19T17:48:44;23.70;56.60
56268;DHT22;42175;46.930;9.532;2022-10-19T17:51:16;23.70;56.70
56268;DHT22;42175;46.930;9.532;2022-10-19T17:53:43;23.70;56.90
56268;DHT22;42175;46.930;9.532;2022-10-19T17:56:11;23.60;57.10
56268;DHT22;42175;46.930;9.532;2022-10-19T17:58:37;23.60;57.30
56268;DHT22;42175;46.930;9.532;2022-10-19T18:01:03;23.60;57.40
56268;DHT22;42175;46.930;9.532;2022-10-19T18:03:31;23.60;57.40
56268;DHT22;42175;46.930;9.532;2022-10-19T18:08:32;23.70;57.50
56268;DHT22;42175;46.930;9.532;2022-10-19T18:10:59;23.70;57.40
56268;DHT22;42175;46.930;9.532;2022-10-19T18:13:26;23.70;57.30
56268;DHT22;42175;46.930;9.532;2022-10-19T18:15:58;23.70;57.30
56268;DHT22;42175;46.930;9.532;2022-10-19T18:18:23;23.70;57.30
56268;DHT22;42175;46.930;9.532;2022-10-19T18:20:49;23.70;57.20
56268;DHT22;42175;46.930;9.532;2022-10-19T18:23:16;23.70;57.20
56268;DHT22;42175;46.930;9.532;2022-10-19T18:25:42;23.70;57.20
56268;DHT22;42175;46.930;9.532;2022-10-19T18:28:07;23.70;57.30
56268;DHT22;42175;46.930;9.532;2022-10-19T18:30:37;23.70;57.40
56268;DHT22;42175;46.930;9.532;2022-10-19T18:33:03;23.70;57.20
56268;DHT22;42175;46.930;9.532;2022-10-19T18:35:33;23.70;57.10